• Join FlightAware (Why Join?)
  • Login
  • US Flag 
04:55AM EDT


 

Airport Tracker/Info


-or-


 

Live Flight TrackerFlight Track Log ✈ UAL5840 ✈ 13-Apr-2013 ✈ CYWG - KORD

Flight Track Log - Related Links

Times and Time Zones

All times are in EDT time to prevent confusion due to time zone crossing. See the UAL5840 flight status page for this flight to view local times or setup timezone preferences in your user account.

Time Position Orientation Groundspeed Altitude Reporting Facility
EDT Latitude Longitude Course Direction KTS MPH feet Rate Location/Type
02:15PM 49.9167 -97.2333 162° South 160 184 1,400  Level Winnipeg Center
02:16PM 49.9500 -97.2333 360° North 180 207 3,900 2,220 Climbing Winnipeg Center
02:17PM 49.9833 -97.1500 58° Northeast 190 219 5,900 1,920 Climbing Winnipeg Center
02:18PM 49.9333 -97.1167 157° South 240 276 7,800 2,040 Climbing Winnipeg Center
02:19PM 49.8500 -97.1000 173° South 270 311 10,000 1,500 Climbing Winnipeg Center
02:20PM 49.4005 -96.7253 162° South  Level FlightAware Approximate
02:20PM 49.7667 -97.0667 166° South 310 357 10,900  Level Winnipeg Center
02:21PM 49.7000 -97.0167 154° Southeast 340 391 11,900 1,020 Climbing Winnipeg Center
02:22PM 49.6167 -96.9333 147° Southeast 360 414 13,000 1,140 Climbing Winnipeg Center
02:23PM 49.5167 -96.8333 147° Southeast 370 426 14,200 1,140 Climbing Winnipeg Center
02:24PM 49.4333 -96.7667 153° Southeast 370 426 15,300 1,140 Climbing Winnipeg Center
02:25PM 49.3500 -96.6833 147° Southeast 380 437 16,500 1,140 Climbing Winnipeg Center
02:26PM 49.2500 -96.5833 147° Southeast 380 437 17,600 1,140 Climbing Winnipeg Center
02:27PM 49.1667 -96.5000 147° Southeast 390 449 18,800 1,140 Climbing Winnipeg Center
02:28PM 49.0500 -96.4000 151° Southeast 390 449 19,900 1,080 Climbing Winnipeg Center
02:29PM 48.9667 -96.3333 152° Southeast 400 460 21,000 1,140 Climbing Winnipeg Center
02:30PM 48.8667 -96.2333 147° Southeast 400 460 22,200 1,140 Climbing Winnipeg Center
02:31PM 48.7667 -96.1500 151° Southeast 410 472 23,300 1,020 Climbing Winnipeg Center
02:31PM 48.7478 -96.1236 137° Southeast 408 470 23,800 1,080 Climbing Minneapolis Center
02:32PM 48.6506 -96.0336 149° Southeast 409 471 25,000 1,080 Climbing Minneapolis Center
02:33PM 48.5533 -95.9447 149° Southeast 408 470 26,100 1,020 Climbing Minneapolis Center
02:34PM 48.4561 -95.8575 149° Southeast 408 470 27,200 1,020 Climbing Minneapolis Center
02:35PM 48.3608 -95.7711 149° Southeast 403 464 28,300 1,200 Climbing Minneapolis Center
02:36PM 48.2481 -95.6681 149° Southeast 397 457 29,700 1,200 Climbing Minneapolis Center
02:37PM 48.1522 -95.5833 149° Southeast 399 459 30,800 1,020 Climbing Minneapolis Center
02:38PM 48.0672 -95.5067 149° Southeast 399 459 31,900 1,140 Climbing Minneapolis Center
02:39PM 47.9536 -95.4047 149° Southeast 400 460 33,200 1,200 Climbing Minneapolis Center
02:40PM 47.8569 -95.3181 149° Southeast 403 464 34,400 840 Climbing Minneapolis Center
02:41PM 47.7608 -95.2344 150° Southeast 402 463 35,000 240 Climbing Minneapolis Center
02:42PM 47.6619 -95.1453 149° Southeast 409 471 35,000  Level Minneapolis Center
02:43PM 47.5569 -95.0533 149° Southeast 427 491 35,000  Level Minneapolis Center
02:45PM 47.4500 -94.9594 149° Southeast 445 512 35,000  Level Minneapolis Center
02:46PM 47.3431 -94.8678 150° Southeast 447 514 35,000  Level Minneapolis Center
02:47PM 47.2156 -94.7581 150° Southeast 445 512 35,000  Level Minneapolis Center
02:48PM 47.1094 -94.6644 149° Southeast 448 516 35,000  Level Minneapolis Center
02:49PM 46.9997 -94.5739 151° Southeast 453 521 35,000  Level Minneapolis Center
02:50PM 46.8900 -94.4803 150° Southeast 460 529 35,000  Level Minneapolis Center
02:51PM 46.7822 -94.3903 150° Southeast 451 519 35,000  Level Minneapolis Center
02:52PM 46.6756 -94.2989 150° Southeast 449 517 35,000  Level Minneapolis Center
02:53PM 46.5661 -94.2086 150° Southeast 452 520 35,000  Level Minneapolis Center
02:54PM 46.4356 -94.1008 150° Southeast 453 521 35,000  Level Minneapolis Center
02:55PM 46.3228 -94.0119 151° Southeast 459 528 35,000  Level Minneapolis Center
02:56PM 46.2033 -93.9481 160° South 460 529 35,000  Level Minneapolis Center
02:57PM 46.0906 -93.8850 159° South 463 533 35,000  Level Minneapolis Center
02:58PM 45.9692 -93.8194 159° South 466 536 35,000  Level Minneapolis Center
02:59PM 45.8236 -93.7372 159° South 471 542 35,000  Level Minneapolis Center
03:00PM 45.7006 -93.6719 160° South 471 542 35,000  Level Minneapolis Center
03:01PM 45.5769 -93.6056 159° South 475 547 35,000  Level Minneapolis Center
03:02PM 45.4536 -93.5383 159° South 476 548 35,000  Level Minneapolis Center
03:03PM 45.3292 -93.4717 159° South 478 550 35,000  Level Minneapolis Center
03:04PM 45.2044 -93.4044 159° South 480 552 35,000  Level Minneapolis Center
03:05PM 45.1067 -93.2786 138° Southeast 485 558 35,000  Level Minneapolis Center
03:06PM 45.0367 -93.1125 121° Southeast 488 562 35,000  Level Minneapolis Center
03:07PM 44.9661 -92.9464 121° Southeast 488 562 35,000  Level Minneapolis Center
03:08PM 44.8964 -92.7797 121° Southeast 489 563 35,000  Level Minneapolis Center
03:09PM 44.8117 -92.5825 121° Southeast 489 563 35,000  Level Minneapolis Center
03:10PM 44.7403 -92.4172 121° Southeast 493 567 35,000  Level Minneapolis Center
03:11PM 44.6697 -92.2536 121° Southeast 491 565 35,000  Level Minneapolis Center
03:12PM 44.5997 -92.0908 121° Southeast 490 564 35,000  Level Minneapolis Center
03:13PM 44.5294 -91.9294 121° Southeast 487 560 35,000 -360 Level Minneapolis Center
03:14PM 44.4592 -91.7678 121° Southeast 488 562 34,300 -1,080 Descending Minneapolis Center
03:15PM 44.3892 -91.6089 122° Southeast 483 556 32,800 -1,500 Descending Minneapolis Center
03:16PM 44.3164 -91.4450 122° Southeast 491 565 31,300 -900 Descending Minneapolis Center
03:17PM 44.2347 -91.2603 122° Southeast 500 575 31,000 -180 Descending Minneapolis Center
03:18PM 44.1611 -91.0964 122° Southeast 501 577 31,000  Level Minneapolis Center
03:19PM 44.0872 -90.9311 122° Southeast 503 579 31,000  Level Minneapolis Center
03:20PM 44.0133 -90.7658 122° Southeast 505 581 31,000  Level Minneapolis Center
03:21PM 43.9369 -90.6011 123° Southeast 508 585 31,000  Level Minneapolis Center
03:22PM 43.8408 -90.4428 130° Southeast 502 578 31,000 -480 Level Minneapolis Center
03:23PM 43.7569 -90.3083 131° Southeast 501 577 30,100 -1,260 Descending Minneapolis Center
03:24PM 43.6603 -90.1519 130° Southeast 498 573 28,500 -1,560 Descending Minneapolis Center
03:25PM 43.5711 -90.0092 131° Southeast 495 570 27,000 -1,620 Descending Minneapolis Center
03:26PM 43.4806 -89.8669 131° Southeast 493 567 25,200 -2,040 Descending Minneapolis Center
03:27PM 43.4058 -89.7486 131° Southeast 492 566 23,500 -2,040 Descending Chicago Center
03:28PM 43.3169 -89.6111 132° Southeast 485 558 21,700 -1,620 Descending Chicago Center
03:29PM 43.2311 -89.4767 131° Southeast 474 545 20,200 -1,440 Descending Chicago Center
03:30PM 43.1406 -89.3514 135° Southeast 472 543 18,800 -1,860 Descending Chicago Center
03:31PM 43.0283 -89.2936 159° South 438 504 16,400 -2,640 Descending Chicago Center
03:32PM 42.9028 -89.2306 160° South 419 482 13,400 -1,680 Descending Chicago Center
03:33PM 42.8186 -89.1219 137° Southeast 420 483 13,000 -240 Descending Chicago Center
03:34PM 42.7361 -89.0056 134° Southeast 425 489 13,000  Level Chicago Center
03:35PM 42.6533 -88.8911 135° Southeast 426 490 13,000  Level Chicago Center
03:36PM 42.5703 -88.7736 134° Southeast 430 495 13,000 -780 Level Chicago Center
03:37PM 42.4892 -88.6581 134° Southeast 427 491 11,500 -1,440 Descending Chicago Center
03:38PM 42.4094 -88.5472 134° Southeast 417 480 10,100 -780 Descending Chicago Center
03:39PM 42.3458 -88.4072 122° Southeast 384 442 10,000 -60 Descending Chicago Center
03:40PM 42.2875 -88.2992 126° Southeast 386 444 10,000  Level Chicago Center
03:41PM 42.2203 -88.1875 129° Southeast 385 443 10,000 -600 Level Chicago Center
03:43PM 42.1589 -88.1039 135° Southeast 320 368 8,800 -1,440 Descending Chicago Center
03:44PM 42.1006 -88.0250 135° Southeast 307 353 7,100 -900 Descending Chicago Center
03:45PM 42.0914 -87.8956 95° East 299 344 7,000 -540 Descending Chicago Center
03:46PM 42.0906 -87.7969 91° East 278 320 6,000 -1,080 Descending Chicago Center
03:47PM 42.0800 -87.7131 100° East 251 289 4,800 -1,200 Descending Chicago Center
03:48PM 42.0333 -87.7167 183° South 199 229 3,700 -1,200 Descending Chicago TRACON
03:49PM 42.0000 -87.7833 236° Southwest 191 220 2,500 -960 Descending Chicago TRACON
03:50PM 42.0000 -87.8333 270° West 124 143 1,700 -720 Descending Chicago TRACON
03:51PM 42.0000 -87.8833 270° West 116 133 1,100 -720 Descending Chicago TRACON
03:53PM 41.9817 -87.9067 236° Southwest  Level Estimated